Time;durP1;ratioP1;P1;durP2;ratioP2;P2;SDS_P1;SDS_P2;PMS_P1;PMS_P2;Temp;Humidity;BMP_temperature;BMP_pressure;BME280_temperature;BME280_humidity;BME280_pressure;Samples;Min_cycle;Max_cycle;Signal;HPM_P1;HPM_P2
2023/02/27 00:00:31;;;;;;;0.30;0.30;;;;;;;;;;5072500;28;20024;-48
2023/02/27 00:02:57;;;;;;;0.50;0.50;;;;;;;;;;5072883;28;20089;-49
2023/02/27 00:05:23;;;;;;;0.50;0.50;;;;;;;;;;5072700;28;20418;-49
2023/02/27 00:07:49;;;;;;;0.60;0.60;;;;;;;;;;5054479;28;20024;-48
2023/02/27 00:10:14;;;;;;;0.30;0.30;;;;;;;;;;5071473;28;20333;-48
2023/02/27 00:12:40;;;;;;;0.65;0.47;;;;;;;;;;5072284;28;20042;-49
2023/02/27 00:15:14;;;;;;;0.80;0.80;;;;;;;;;;5072298;28;20459;-50
2023/02/27 00:17:40;;;;;;;0.22;0.22;;;;;;;;;;5072260;28;20085;-49
2023/02/27 00:20:06;;;;;;;0.77;0.63;;;;;;;;;;5072214;28;20013;-49
2023/02/27 00:22:32;;;;;;;0.30;0.30;;;;;;;;;;5070785;28;20043;-49
2023/02/27 00:24:57;;;;;;;0.52;0.52;;;;;;;;;;5072237;28;20099;-49
2023/02/27 00:27:23;;;;;;;0.40;0.40;;;;;;;;;;5071955;28;20083;-48
2023/02/27 00:29:49;;;;;;;1.13;0.47;;;;;;;;;;5072094;28;20020;-49
2023/02/27 00:32:14;;;;;;;0.20;0.20;;;;;;;;;;5070684;28;20031;-49
2023/02/27 00:34:40;;;;;;;0.40;0.40;;;;;;;;;;5071719;28;20056;-49
2023/02/27 00:37:06;;;;;;;2.75;0.50;;;;;;;;;;5072137;28;20059;-48
2023/02/27 00:39:31;;;;;;;0.68;0.63;;;;;;;;;;5071803;28;20104;-49
2023/02/27 00:41:56;;;;;;;1.02;0.77;;;;;;;;;;5070493;28;20028;-49
2023/02/27 00:44:22;;;;;;;0.90;0.57;;;;;;;;;;5071637;28;20017;-48
2023/02/27 00:46:47;;;;;;;0.73;0.73;;;;;;;;;;5070467;28;20525;-48
2023/02/27 00:49:13;;;;;;;1.17;0.80;;;;;;;;;;5071698;28;20048;-48
2023/02/27 00:51:38;;;;;;;1.00;0.85;;;;;;;;;;5072013;28;20514;-49
2023/02/27 00:54:04;;;;;;;0.45;0.45;;;;;;;;;;5070277;28;20499;-49
2023/02/27 00:56:29;;;;;;;0.50;0.50;;;;;;;;;;5071773;28;20106;-48
2023/02/27 00:58:55;;;;;;;0.43;0.43;;;;;;;;;;5071645;28;20465;-48
2023/02/27 01:01:20;;;;;;;0.52;0.52;;;;;;;;;;5071759;28;20031;-48
2023/02/27 01:03:45;;;;;;;1.33;0.80;;;;;;;;;;5071530;28;20387;-49
2023/02/27 01:06:11;;;;;;;0.98;0.98;;;;;;;;;;5071411;28;20036;-48
2023/02/27 01:08:37;;;;;;;0.30;0.30;;;;;;;;;;5070230;28;20171;-48
2023/02/27 01:11:03;;;;;;;0.50;0.50;;;;;;;;;;5070188;28;20064;-48
2023/02/27 01:13:30;;;;;;;0.77;0.75;;;;;;;;;;5070111;28;20229;-48
2023/02/27 01:15:57;;;;;;;0.43;0.43;;;;;;;;;;5071483;28;20382;-48
2023/02/27 01:18:22;;;;;;;0.47;0.47;;;;;;;;;;5071184;28;20013;-48
2023/02/27 01:20:52;;;;;;;0.30;0.30;;;;;;;;;;5071298;28;20024;-48
2023/02/27 01:23:17;;;;;;;0.60;0.60;;;;;;;;;;5071379;28;20097;-48
2023/02/27 01:25:43;;;;;;;0.50;0.50;;;;;;;;;;5071288;28;20480;-48
2023/02/27 01:28:08;;;;;;;0.80;0.80;;;;;;;;;;5071596;28;20056;-48
2023/02/27 01:30:35;;;;;;;0.17;0.17;;;;;;;;;;5069923;28;20037;-48
2023/02/27 01:33:00;;;;;;;0.80;0.77;;;;;;;;;;5071189;28;20101;-48
2023/02/27 01:35:26;;;;;;;0.63;0.50;;;;;;;;;;5071215;28;20392;-48
2023/02/27 01:37:51;;;;;;;0.60;0.60;;;;;;;;;;5069847;28;20105;-49
2023/02/27 01:40:17;;;;;;;0.47;0.47;;;;;;;;;;5069818;28;20553;-48
2023/02/27 01:42:42;;;;;;;0.45;0.45;;;;;;;;;;5071120;28;20028;-48
2023/02/27 01:45:08;;;;;;;0.95;0.47;;;;;;;;;;5071329;28;20037;-48
2023/02/27 01:47:34;;;;;;;0.20;0.20;;;;;;;;;;5070994;28;20016;-48
2023/02/27 01:49:59;;;;;;;0.65;0.50;;;;;;;;;;5071049;28;20033;-48
2023/02/27 01:52:26;;;;;;;0.50;0.50;;;;;;;;;;5069627;28;20031;-48
2023/02/27 01:54:51;;;;;;;1.83;0.98;;;;;;;;;;5071270;28;20042;-48
2023/02/27 01:57:17;;;;;;;0.70;0.70;;;;;;;;;;5069646;28;20409;-49
2023/02/27 01:59:42;;;;;;;0.60;0.55;;;;;;;;;;5069636;28;20459;-48
2023/02/27 02:02:20;;;;;;;0.50;0.50;;;;;;;;;;5071185;28;20020;-49
2023/02/27 02:04:47;;;;;;;0.40;0.40;;;;;;;;;;5069742;28;20395;-48
2023/02/27 02:07:14;;;;;;;0.40;0.40;;;;;;;;;;5069584;28;20065;-47
2023/02/27 02:09:45;;;;;;;0.40;0.40;;;;;;;;;;5069576;28;20032;-48
2023/02/27 02:12:12;;;;;;;0.40;0.40;;;;;;;;;;5069520;28;20032;-49
2023/02/27 02:14:37;;;;;;;0.63;0.60;;;;;;;;;;5070690;28;20047;-48
2023/02/27 02:17:14;;;;;;;0.63;0.63;;;;;;;;;;5070818;28;20032;-48
2023/02/27 02:19:40;;;;;;;1.02;0.60;;;;;;;;;;5069576;28;20115;-48
2023/02/27 02:22:30;;;;;;;0.43;0.43;;;;;;;;;;5070793;28;20557;-48
2023/02/27 02:25:14;;;;;;;0.77;0.73;;;;;;;;;;5069618;28;20454;-48
2023/02/27 02:27:55;;;;;;;0.20;0.20;;;;;;;;;;5069386;28;20037;-48
2023/02/27 02:30:23;;;;;;;0.65;0.50;;;;;;;;;;5069329;28;20035;-48
2023/02/27 02:33:07;;;;;;;0.60;0.60;;;;;;;;;;5071581;28;20123;-48
2023/02/27 02:35:44;;;;;;;0.82;0.70;;;;;;;;;;5073019;28;20052;-48
2023/02/27 02:38:16;;;;;;;0.50;0.50;;;;;;;;;;5074257;28;20416;-48
2023/02/27 02:41:00;;;;;;;1.20;1.05;;;;;;;;;;5074115;28;20028;-48
2023/02/27 02:43:38;;;;;;;0.50;0.50;;;;;;;;;;5074038;28;20032;-48
2023/02/27 02:46:10;;;;;;;0.73;0.60;;;;;;;;;;5074075;28;20033;-48
2023/02/27 02:48:43;;;;;;;0.63;0.63;;;;;;;;;;5074014;28;20032;-48
2023/02/27 02:51:21;;;;;;;2.08;0.90;;;;;;;;;;5073914;28;20029;-48
2023/02/27 02:53:55;;;;;;;0.40;0.40;;;;;;;;;;5072616;28;20044;-48
2023/02/27 02:56:28;;;;;;;0.63;0.45;;;;;;;;;;5055798;28;20500;-49
2023/02/27 02:58:58;;;;;;;1.10;1.00;;;;;;;;;;5073840;28;20037;-48
2023/02/27 03:01:44;;;;;;;0.20;0.20;;;;;;;;;;5072476;28;20032;-48
2023/02/27 03:04:16;;;;;;;0.60;0.60;;;;;;;;;;5058618;28;20037;-48
2023/02/27 03:06:46;;;;;;;0.40;0.40;;;;;;;;;;5072448;28;20063;-48
2023/02/27 03:09:17;;;;;;;0.50;0.50;;;;;;;;;;5072336;28;20041;-48
2023/02/27 03:11:44;;;;;;;0.50;0.50;;;;;;;;;;5073640;28;20025;-48
2023/02/27 03:14:13;;;;;;;1.17;0.73;;;;;;;;;;5073542;28;20036;-48
2023/02/27 03:16:41;;;;;;;0.55;0.55;;;;;;;;;;5073452;28;20028;-48
2023/02/27 03:19:06;;;;;;;2.17;0.47;;;;;;;;;;5072227;28;20058;-48
2023/02/27 03:21:49;;;;;;;1.77;0.95;;;;;;;;;;5073409;28;20543;-48
2023/02/27 03:24:20;;;;;;;1.27;0.75;;;;;;;;;;5073447;28;20024;-48
2023/02/27 03:26:48;;;;;;;0.93;0.63;;;;;;;;;;5072000;28;20041;-48
2023/02/27 03:29:18;;;;;;;0.50;0.50;;;;;;;;;;5072007;28;20077;-51
2023/02/27 03:31:53;;;;;;;0.57;0.57;;;;;;;;;;5073158;28;20391;-48
2023/02/27 03:34:31;;;;;;;0.73;0.55;;;;;;;;;;5071615;28;20055;-48
2023/02/27 03:37:08;;;;;;;0.75;0.68;;;;;;;;;;5071832;28;20048;-48
2023/02/27 03:39:36;;;;;;;0.43;0.43;;;;;;;;;;5071640;28;20486;-48
2023/02/27 03:42:15;;;;;;;0.65;0.57;;;;;;;;;;5071795;28;20031;-48
2023/02/27 03:45:12;;;;;;;0.38;0.38;;;;;;;;;;5071716;28;20028;-49
2023/02/27 03:47:38;;;;;;;0.20;0.20;;;;;;;;;;5071508;28;20098;-49
2023/02/27 03:50:04;;;;;;;0.45;0.40;;;;;;;;;;5072915;28;20020;-48
2023/02/27 03:52:30;;;;;;;0.68;0.68;;;;;;;;;;5072964;28;20485;-48
2023/02/27 03:54:58;;;;;;;0.57;0.57;;;;;;;;;;5072681;28;20025;-48
2023/02/27 03:57:24;;;;;;;8.30;0.82;;;;;;;;;;5071323;28;20021;-49
2023/02/27 03:59:50;;;;;;;0.50;0.50;;;;;;;;;;5054783;28;20031;-48
2023/02/27 04:02:15;;;;;;;0.40;0.40;;;;;;;;;;5071239;28;20478;-48
2023/02/27 04:04:41;;;;;;;1.25;0.63;;;;;;;;;;5071219;28;20471;-49
2023/02/27 04:07:24;;;;;;;0.90;0.70;;;;;;;;;;5072790;28;20036;-48
2023/02/27 04:09:52;;;;;;;1.45;0.77;;;;;;;;;;5072443;28;20501;-48
2023/02/27 04:12:44;;;;;;;1.08;1.00;;;;;;;;;;5072350;28;20028;-48
2023/02/27 04:15:13;;;;;;;1.95;0.65;;;;;;;;;;5072321;28;20032;-48
2023/02/27 04:17:56;;;;;;;1.88;0.95;;;;;;;;;;5072272;28;20040;-48
2023/02/27 04:20:35;;;;;;;1.60;0.93;;;;;;;;;;5072128;28;20029;-48
2023/02/27 04:23:07;;;;;;;1.05;0.98;;;;;;;;;;5072198;28;20032;-49
2023/02/27 04:25:36;;;;;;;0.60;0.60;;;;;;;;;;5072118;28;20036;-48
2023/02/27 04:28:09;;;;;;;0.75;0.70;;;;;;;;;;5072173;28;20038;-48
2023/02/27 04:30:57;;;;;;;0.50;0.50;;;;;;;;;;5072193;28;20043;-48
2023/02/27 04:33:38;;;;;;;0.75;0.75;;;;;;;;;;5071684;28;20044;-49
2023/02/27 04:36:10;;;;;;;0.50;0.50;;;;;;;;;;5071937;28;20494;-48
2023/02/27 04:38:38;;;;;;;1.10;0.65;;;;;;;;;;5071823;28;20033;-48
2023/02/27 04:41:07;;;;;;;1.60;0.82;;;;;;;;;;5072145;28;20135;-48
2023/02/27 04:43:33;;;;;;;1.55;0.95;;;;;;;;;;5071805;28;20491;-48
2023/02/27 04:46:00;;;;;;;1.38;0.50;;;;;;;;;;5071786;28;20055;-48
2023/02/27 04:48:27;;;;;;;2.13;1.05;;;;;;;;;;5071909;28;20086;-48
2023/02/27 04:50:58;;;;;;;0.70;0.70;;;;;;;;;;5071959;28;20024;-48
2023/02/27 04:53:29;;;;;;;1.92;1.77;;;;;;;;;;5071611;28;20040;-48
2023/02/27 04:56:03;;;;;;;0.70;0.70;;;;;;;;;;5071261;28;20020;-48
2023/02/27 04:58:32;;;;;;;1.10;0.80;;;;;;;;;;5071808;28;20063;-48
2023/02/27 05:01:00;;;;;;;1.17;0.93;;;;;;;;;;5071880;28;20134;-48
2023/02/27 05:03:31;;;;;;;0.80;0.80;;;;;;;;;;5071563;28;20028;-48
2023/02/27 05:05:58;;;;;;;3.38;1.25;;;;;;;;;;5071468;28;20044;-48
2023/02/27 05:08:32;;;;;;;1.65;1.15;;;;;;;;;;5071732;28;20029;-48
2023/02/27 05:11:01;;;;;;;1.00;0.80;;;;;;;;;;5071546;28;20126;-49
2023/02/27 05:13:31;;;;;;;0.60;0.55;;;;;;;;;;5071299;28;20039;-48
2023/02/27 05:16:15;;;;;;;2.85;0.77;;;;;;;;;;5071513;28;20020;-48
2023/02/27 05:18:41;;;;;;;1.67;0.80;;;;;;;;;;5070143;28;20039;-48
2023/02/27 05:21:28;;;;;;;0.63;0.47;;;;;;;;;;5071449;28;20017;-48
2023/02/27 05:24:08;;;;;;;0.52;0.52;;;;;;;;;;5070102;28;20403;-48
2023/02/27 05:26:48;;;;;;;0.93;0.77;;;;;;;;;;5071374;28;20029;-48
2023/02/27 05:29:17;;;;;;;1.15;0.82;;;;;;;;;;5071393;28;20028;-48
2023/02/27 05:31:46;;;;;;;1.05;0.50;;;;;;;;;;5069896;28;20379;-48
2023/02/27 05:34:18;;;;;;;0.90;0.77;;;;;;;;;;5070986;28;20045;-48
2023/02/27 05:36:51;;;;;;;0.95;0.75;;;;;;;;;;5071096;28;20465;-48
2023/02/27 05:39:19;;;;;;;0.50;0.50;;;;;;;;;;5071287;28;20491;-48
2023/02/27 05:41:51;;;;;;;0.57;0.47;;;;;;;;;;5071382;28;20073;-48
2023/02/27 05:44:19;;;;;;;0.95;0.95;;;;;;;;;;5071238;28;20028;-48
2023/02/27 05:46:46;;;;;;;1.63;1.15;;;;;;;;;;5071377;28;20386;-48
2023/02/27 05:49:38;;;;;;;1.75;1.00;;;;;;;;;;5071395;28;20033;-49
2023/02/27 05:52:05;;;;;;;0.55;0.55;;;;;;;;;;5047676;28;20116;-48
2023/02/27 05:54:34;;;;;;;0.70;0.70;;;;;;;;;;5069679;28;20033;-48
2023/02/27 05:57:00;;;;;;;1.85;1.25;;;;;;;;;;5071245;28;20036;-48
2023/02/27 05:59:28;;;;;;;1.40;0.70;;;;;;;;;;5070999;28;20021;-48
2023/02/27 06:01:54;;;;;;;0.88;0.88;;;;;;;;;;5071040;28;20036;-48
2023/02/27 06:04:20;;;;;;;0.80;0.75;;;;;;;;;;5070921;28;20068;-48
2023/02/27 06:06:46;;;;;;;2.22;1.33;;;;;;;;;;5071006;28;20550;-48
2023/02/27 06:09:12;;;;;;;0.40;0.40;;;;;;;;;;5074377;28;20017;-48
2023/02/27 06:11:37;;;;;;;0.75;0.70;;;;;;;;;;5074694;28;20423;-48
2023/02/27 06:14:03;;;;;;;2.20;1.17;;;;;;;;;;5074623;28;20070;-48
2023/02/27 06:16:30;;;;;;;1.42;1.27;;;;;;;;;;5073133;28;20027;-48
2023/02/27 06:18:55;;;;;;;1.13;0.57;;;;;;;;;;5074951;28;20025;-48
2023/02/27 06:21:21;;;;;;;0.55;0.55;;;;;;;;;;5073184;28;20036;-48
2023/02/27 06:23:46;;;;;;;0.60;0.60;;;;;;;;;;5074330;28;20109;-48
2023/02/27 06:26:13;;;;;;;0.38;0.38;;;;;;;;;;5074399;28;20032;-49
2023/02/27 06:28:39;;;;;;;1.05;0.63;;;;;;;;;;5074386;28;20519;-48
2023/02/27 06:31:05;;;;;;;1.00;0.93;;;;;;;;;;5074313;28;20380;-48
2023/02/27 06:33:32;;;;;;;0.73;0.73;;;;;;;;;;5074091;28;20043;-48
2023/02/27 06:35:57;;;;;;;1.02;0.93;;;;;;;;;;5074323;28;20039;-48
2023/02/27 06:38:23;;;;;;;1.30;0.85;;;;;;;;;;5074135;28;20032;-48
2023/02/27 06:40:50;;;;;;;1.17;0.82;;;;;;;;;;5074079;28;20020;-48
2023/02/27 06:43:16;;;;;;;1.92;1.02;;;;;;;;;;5074139;28;20035;-48
2023/02/27 06:45:41;;;;;;;0.55;0.55;;;;;;;;;;5073929;28;20056;-48
2023/02/27 06:48:07;;;;;;;1.10;0.80;;;;;;;;;;5074063;28;20024;-48
2023/02/27 06:50:32;;;;;;;0.68;0.68;;;;;;;;;;5073867;28;20039;-48
2023/02/27 06:52:58;;;;;;;0.40;0.40;;;;;;;;;;5073972;28;20025;-48
2023/02/27 06:55:24;;;;;;;0.60;0.60;;;;;;;;;;5073912;28;20032;-48
2023/02/27 06:57:50;;;;;;;2.08;0.80;;;;;;;;;;5074214;28;20031;-48
2023/02/27 07:00:16;;;;;;;2.13;1.27;;;;;;;;;;5073681;28;20032;-49
2023/02/27 07:02:41;;;;;;;0.70;0.70;;;;;;;;;;5073682;28;20013;-48
2023/02/27 07:05:07;;;;;;;1.35;0.98;;;;;;;;;;5073697;28;20463;-48
2023/02/27 07:07:33;;;;;;;1.60;1.27;;;;;;;;;;5073379;28;20028;-48
2023/02/27 07:10:00;;;;;;;1.23;0.88;;;;;;;;;;5073806;28;20173;-48
2023/02/27 07:12:26;;;;;;;0.85;0.82;;;;;;;;;;5073465;28;20021;-49
2023/02/27 07:14:51;;;;;;;0.70;0.70;;;;;;;;;;5073556;28;20493;-48
2023/02/27 07:17:17;;;;;;;3.90;1.30;;;;;;;;;;5073739;28;20070;-49
2023/02/27 07:19:42;;;;;;;1.05;0.68;;;;;;;;;;5073073;28;20501;-48
2023/02/27 07:22:09;;;;;;;0.43;0.43;;;;;;;;;;5073776;28;20027;-48
2023/02/27 07:24:36;;;;;;;1.05;0.98;;;;;;;;;;5073217;28;20534;-49
2023/02/27 07:27:02;;;;;;;0.30;0.30;;;;;;;;;;5073343;28;20107;-49
2023/02/27 07:29:27;;;;;;;0.40;0.40;;;;;;;;;;5073173;28;20500;-49
2023/02/27 07:31:53;;;;;;;0.82;0.68;;;;;;;;;;5073337;28;20024;-48
2023/02/27 07:34:18;;;;;;;1.73;1.20;;;;;;;;;;5072917;28;20109;-49
2023/02/27 07:36:44;;;;;;;3.20;1.60;;;;;;;;;;5072814;28;20052;-49
2023/02/27 07:39:13;;;;;;;1.05;1.05;;;;;;;;;;5071870;28;20032;-48
2023/02/27 07:41:39;;;;;;;1.10;1.00;;;;;;;;;;5073254;28;20067;-49
2023/02/27 07:44:07;;;;;;;1.00;0.95;;;;;;;;;;5073127;28;20488;-49
2023/02/27 07:46:33;;;;;;;1.08;1.05;;;;;;;;;;5072888;28;20029;-49
2023/02/27 07:49:00;;;;;;;0.47;0.47;;;;;;;;;;5071436;28;20111;-49
2023/02/27 07:51:25;;;;;;;0.73;0.73;;;;;;;;;;5072850;28;20112;-48
2023/02/27 07:53:51;;;;;;;0.30;0.30;;;;;;;;;;5073014;28;20095;-50
2023/02/27 07:56:17;;;;;;;0.73;0.50;;;;;;;;;;5072966;28;20424;-49
2023/02/27 07:58:43;;;;;;;0.60;0.60;;;;;;;;;;5072675;28;20035;-49
2023/02/27 08:01:09;;;;;;;1.25;1.15;;;;;;;;;;5071440;28;20107;-48
2023/02/27 08:03:35;;;;;;;1.75;1.15;;;;;;;;;;5072539;28;20403;-49
2023/02/27 08:06:01;;;;;;;3.03;1.23;;;;;;;;;;5072791;28;20425;-49
2023/02/27 08:08:27;;;;;;;0.82;0.82;;;;;;;;;;5072425;28;20150;-48
2023/02/27 08:10:54;;;;;;;1.05;0.98;;;;;;;;;;5072524;28;20467;-49
2023/02/27 08:13:20;;;;;;;0.38;0.38;;;;;;;;;;5072365;28;20028;-48
2023/02/27 08:15:46;;;;;;;3.42;0.98;;;;;;;;;;5072291;28;20024;-48
2023/02/27 08:18:11;;;;;;;2.63;1.90;;;;;;;;;;5072251;28;20075;-49
2023/02/27 08:20:36;;;;;;;2.40;1.13;;;;;;;;;;5072127;28;20059;-49
2023/02/27 08:23:02;;;;;;;1.42;0.70;;;;;;;;;;5072270;28;20059;-49
2023/02/27 08:25:29;;;;;;;2.22;0.82;;;;;;;;;;5072010;28;20023;-48
2023/02/27 08:27:54;;;;;;;0.70;0.70;;;;;;;;;;5072267;28;20032;-48
2023/02/27 08:30:20;;;;;;;1.25;1.15;;;;;;;;;;5071436;28;20026;-49
2023/02/27 08:32:45;;;;;;;1.15;0.80;;;;;;;;;;5071763;28;20117;-49
2023/02/27 08:35:11;;;;;;;2.88;1.63;;;;;;;;;;5071897;28;20098;-49
2023/02/27 08:37:37;;;;;;;1.80;0.90;;;;;;;;;;5071898;28;20024;-49
2023/02/27 08:40:05;;;;;;;1.48;1.38;;;;;;;;;;5072278;28;20035;-49
2023/02/27 08:42:31;;;;;;;0.75;0.70;;;;;;;;;;5071929;28;20119;-49
2023/02/27 08:44:56;;;;;;;0.70;0.70;;;;;;;;;;5071819;28;20518;-49
2023/02/27 08:47:22;;;;;;;1.25;1.13;;;;;;;;;;5070471;28;20055;-49
2023/02/27 08:49:47;;;;;;;2.50;1.00;;;;;;;;;;5071544;28;20035;-49
2023/02/27 08:52:13;;;;;;;1.63;0.60;;;;;;;;;;5070479;28;20038;-49
2023/02/27 08:54:39;;;;;;;4.97;1.15;;;;;;;;;;5071635;28;20028;-49
2023/02/27 08:57:04;;;;;;;1.08;0.98;;;;;;;;;;5070392;28;20032;-49
2023/02/27 08:59:30;;;;;;;1.08;0.98;;;;;;;;;;5071581;28;20483;-49
2023/02/27 09:01:56;;;;;;;0.70;0.70;;;;;;;;;;5071612;28;20033;-49
2023/02/27 09:04:22;;;;;;;0.75;0.75;;;;;;;;;;5071497;28;20048;-49
2023/02/27 09:06:52;;;;;;;3.42;1.77;;;;;;;;;;5071565;28;20070;-49
2023/02/27 09:09:17;;;;;;;1.80;1.25;;;;;;;;;;5071492;28;20017;-49
2023/02/27 09:11:45;;;;;;;0.80;0.80;;;;;;;;;;5071518;28;20025;-49
2023/02/27 09:14:10;;;;;;;1.08;0.95;;;;;;;;;;5071627;28;20097;-48
2023/02/27 09:16:36;;;;;;;1.17;1.05;;;;;;;;;;5071292;28;20433;-49
2023/02/27 09:19:01;;;;;;;1.40;1.30;;;;;;;;;;5071524;28;20027;-49
2023/02/27 09:21:28;;;;;;;0.55;0.55;;;;;;;;;;5071259;28;20115;-49
2023/02/27 09:23:54;;;;;;;1.45;1.35;;;;;;;;;;5071503;28;20099;-49
2023/02/27 09:26:20;;;;;;;1.80;1.10;;;;;;;;;;5070127;28;20043;-49
2023/02/27 09:28:45;;;;;;;2.15;1.58;;;;;;;;;;5071131;28;20020;-49
2023/02/27 09:31:11;;;;;;;1.48;1.15;;;;;;;;;;5071334;28;20035;-49
2023/02/27 09:33:37;;;;;;;1.27;0.95;;;;;;;;;;5071082;28;20044;-49
2023/02/27 09:36:04;;;;;;;2.45;1.23;;;;;;;;;;5071173;28;20534;-48
2023/02/27 09:38:30;;;;;;;0.43;0.43;;;;;;;;;;5071231;28;20049;-49
2023/02/27 09:40:58;;;;;;;0.90;0.90;;;;;;;;;;5071167;28;20471;-49
2023/02/27 09:43:29;;;;;;;2.53;0.93;;;;;;;;;;5074916;28;20031;-49
2023/02/27 09:45:57;;;;;;;0.55;0.55;;;;;;;;;;5075568;28;20086;-49
2023/02/27 09:48:45;;;;;;;0.28;0.28;;;;;;;;;;5075306;28;20102;-49
2023/02/27 09:51:13;;;;;;;0.82;0.60;;;;;;;;;;5066996;28;20033;-49
2023/02/27 09:53:40;;;;;;;2.05;0.85;;;;;;;;;;5075248;28;20115;-49
2023/02/27 09:56:14;;;;;;;2.05;1.40;;;;;;;;;;5074959;28;20495;-49
2023/02/27 09:58:58;;;;;;;1.90;0.55;;;;;;;;;;5074955;28;20033;-49
2023/02/27 10:01:29;;;;;;;0.60;0.60;;;;;;;;;;5074910;28;20471;-49
2023/02/27 10:04:08;;;;;;;1.35;0.82;;;;;;;;;;5075170;28;20432;-49
2023/02/27 10:06:40;;;;;;;1.98;0.88;;;;;;;;;;5074807;28;20031;-49
2023/02/27 10:09:15;;;;;;;1.38;0.68;;;;;;;;;;5073559;28;20033;-49
2023/02/27 10:11:44;;;;;;;1.65;1.42;;;;;;;;;;5074765;28;20036;-48
2023/02/27 10:14:18;;;;;;;2.15;1.00;;;;;;;;;;5074724;28;20024;-49
2023/02/27 10:16:44;;;;;;;0.93;0.93;;;;;;;;;;5074515;28;20090;-48
2023/02/27 10:19:13;;;;;;;2.38;0.95;;;;;;;;;;5074709;28;20020;-49
2023/02/27 10:21:42;;;;;;;1.10;0.68;;;;;;;;;;5074542;28;20048;-48
2023/02/27 10:24:11;;;;;;;0.90;0.90;;;;;;;;;;5074609;28;20394;-48
2023/02/27 10:26:41;;;;;;;2.70;1.17;;;;;;;;;;5074306;28;20029;-49
2023/02/27 10:29:16;;;;;;;0.70;0.70;;;;;;;;;;5074784;28;20032;-49
2023/02/27 10:31:42;;;;;;;0.90;0.90;;;;;;;;;;5074313;28;20025;-48
2023/02/27 10:34:11;;;;;;;2.67;1.70;;;;;;;;;;5074118;28;20131;-49
2023/02/27 10:36:39;;;;;;;2.35;1.48;;;;;;;;;;5074177;28;20051;-49
2023/02/27 10:39:06;;;;;;;1.38;1.20;;;;;;;;;;5074311;28;20524;-49
2023/02/27 10:41:33;;;;;;;3.03;1.52;;;;;;;;;;5074169;28;20074;-49
2023/02/27 10:43:59;;;;;;;0.55;0.40;;;;;;;;;;5074228;28;20020;-49
2023/02/27 10:46:29;;;;;;;5.68;2.15;;;;;;;;;;5074009;28;20031;-49
2023/02/27 10:48:57;;;;;;;2.50;1.33;;;;;;;;;;5074140;28;20387;-49
2023/02/27 10:51:30;;;;;;;1.05;1.05;;;;;;;;;;5073124;28;20170;-48
2023/02/27 10:53:55;;;;;;;;;;;;;;;;;;5073517;28;20553;-49
2023/02/27 10:56:24;;;;;;;0.40;0.40;;;;;;;;;;5074182;28;19991;-49
2023/02/27 10:59:01;;;;;;;0.98;0.93;;;;;;;;;;5074033;28;20035;-49
2023/02/27 11:01:39;;;;;;;4.35;1.58;;;;;;;;;;5072648;28;20033;-49
2023/02/27 11:04:05;;;;;;;2.10;1.58;;;;;;;;;;5072577;28;20075;-49
2023/02/27 11:06:31;;;;;;;0.40;0.40;;;;;;;;;;5073966;28;20494;-49
2023/02/27 11:09:11;;;;;;;0.80;0.80;;;;;;;;;;5073740;28;20032;-49
2023/02/27 11:11:37;;;;;;;0.55;0.55;;;;;;;;;;5072481;28;20032;-49
2023/02/27 11:14:23;;;;;;;1.95;1.13;;;;;;;;;;5073642;28;20035;-49
2023/02/27 11:16:53;;;;;;;1.55;1.13;;;;;;;;;;5073501;28;20032;-49
2023/02/27 11:19:23;;;;;;;1.67;1.30;;;;;;;;;;5073557;28;20020;-49
2023/02/27 11:21:59;;;;;;;2.80;1.10;;;;;;;;;;5073662;28;20086;-49
2023/02/27 11:24:26;;;;;;;0.60;0.60;;;;;;;;;;5073395;28;20020;-49
2023/02/27 11:26:55;;;;;;;1.83;1.27;;;;;;;;;;5073393;28;20024;-49
2023/02/27 11:29:21;;;;;;;0.98;0.73;;;;;;;;;;5073306;28;20025;-49
2023/02/27 11:31:55;;;;;;;1.13;1.02;;;;;;;;;;5073218;28;20055;-49
2023/02/27 11:34:23;;;;;;;2.17;1.38;;;;;;;;;;5073155;28;20102;-49
2023/02/27 11:36:50;;;;;;;2.60;1.30;;;;;;;;;;5073055;28;20554;-49
2023/02/27 11:39:19;;;;;;;2.03;1.33;;;;;;;;;;5072033;28;20036;-49
2023/02/27 11:41:44;;;;;;;1.33;1.05;;;;;;;;;;5073291;28;20036;-49
2023/02/27 11:44:13;;;;;;;1.85;1.23;;;;;;;;;;5072928;28;20058;-49
2023/02/27 11:46:39;;;;;;;1.40;1.15;;;;;;;;;;5072879;28;20759;-49
2023/02/27 11:49:10;;;;;;;1.42;1.27;;;;;;;;;;5072921;28;20047;-49
2023/02/27 11:51:55;;;;;;;0.68;0.68;;;;;;;;;;5072845;28;20467;-50
2023/02/27 11:54:20;;;;;;;2.10;1.45;;;;;;;;;;5072809;28;20037;-49
2023/02/27 11:56:58;;;;;;;4.43;0.77;;;;;;;;;;5072920;28;20024;-49
2023/02/27 11:59:43;;;;;;;1.55;1.05;;;;;;;;;;5072718;28;20471;-49
2023/02/27 12:02:28;;;;;;;1.27;1.15;;;;;;;;;;5071179;28;20056;-49
2023/02/27 12:04:58;;;;;;;1.25;0.93;;;;;;;;;;5071887;28;20028;-49
2023/02/27 12:07:37;;;;;;;1.50;1.38;;;;;;;;;;5070949;28;20040;-49
2023/02/27 12:10:03;;;;;;;1.92;1.23;;;;;;;;;;5072566;28;20037;-49
2023/02/27 12:12:36;;;;;;;2.05;1.27;;;;;;;;;;5072371;28;20048;-49
2023/02/27 12:15:02;;;;;;;;;;;;;;;;;;5072836;28;20098;-48
2023/02/27 12:17:27;;;;;;;1.95;1.38;;;;;;;;;;5072176;28;19908;-49
2023/02/27 12:20:16;;;;;;;2.13;1.88;;;;;;;;;;5072265;28;20032;-49
2023/02/27 12:22:44;;;;;;;5.68;1.88;;;;;;;;;;5063888;28;20067;-48
2023/02/27 12:25:32;;;;;;;2.15;1.80;;;;;;;;;;5072216;28;20112;-49
2023/02/27 12:28:24;;;;;;;3.78;1.08;;;;;;;;;;5062007;28;20123;-49
2023/02/27 12:31:01;;;;;;;2.58;1.05;;;;;;;;;;5068426;28;20106;-49
2023/02/27 12:33:27;;;;;;;1.90;1.30;;;;;;;;;;5071762;28;20039;-49
2023/02/27 12:35:58;;;;;;;3.15;1.48;;;;;;;;;;5072002;28;20397;-49
2023/02/27 12:38:24;;;;;;;2.08;1.40;;;;;;;;;;5070676;28;20031;-49
2023/02/27 12:40:53;;;;;;;2.72;1.15;;;;;;;;;;5071821;28;20025;-49
2023/02/27 12:43:28;;;;;;;1.48;1.20;;;;;;;;;;5072011;28;20036;-49
2023/02/27 12:45:53;;;;;;;2.15;1.65;;;;;;;;;;5072080;28;20116;-49
2023/02/27 12:48:32;;;;;;;2.00;1.42;;;;;;;;;;5071795;28;20123;-49
2023/02/27 12:51:03;;;;;;;1.63;1.50;;;;;;;;;;5070508;28;20021;-49
2023/02/27 12:53:41;;;;;;;3.85;1.55;;;;;;;;;;5071689;28;20127;-49
2023/02/27 12:56:17;;;;;;;2.22;1.23;;;;;;;;;;5071649;28;20024;-49
2023/02/27 12:58:55;;;;;;;2.33;1.77;;;;;;;;;;5071702;28;20078;-50
2023/02/27 13:01:39;;;;;;;1.98;0.75;;;;;;;;;;5070371;28;20479;-49
2023/02/27 13:04:14;;;;;;;2.22;1.35;;;;;;;;;;5070372;28;20429;-48
2023/02/27 13:06:48;;;;;;;2.83;1.90;;;;;;;;;;5071600;28;20024;-49
2023/02/27 13:09:24;;;;;;;1.52;1.23;;;;;;;;;;5071482;28;20021;-48
2023/02/27 13:11:57;;;;;;;1.55;1.40;;;;;;;;;;5071500;28;20768;-49
2023/02/27 13:14:31;;;;;;;2.20;0.77;;;;;;;;;;5070132;28;20193;-49
2023/02/27 13:17:09;;;;;;;2.88;1.88;;;;;;;;;;5071044;28;20029;-48
2023/02/27 13:19:38;;;;;;;1.17;0.80;;;;;;;;;;5071358;28;20028;-49
2023/02/27 13:22:28;;;;;;;3.45;2.22;;;;;;;;;;5071413;28;20028;-49
2023/02/27 13:24:55;;;;;;;2.65;1.55;;;;;;;;;;5071356;28;20432;-49
2023/02/27 13:27:20;;;;;;;1.48;1.33;;;;;;;;;;5071360;28;20032;-49
2023/02/27 13:30:04;;;;;;;3.95;1.25;;;;;;;;;;5071454;28;20035;-49
2023/02/27 13:32:37;;;;;;;2.38;1.98;;;;;;;;;;5071230;28;20502;-49
2023/02/27 13:35:18;;;;;;;2.08;1.25;;;;;;;;;;5071170;28;20135;-49
2023/02/27 13:37:56;;;;;;;3.25;2.03;;;;;;;;;;5071125;28;20475;-48
2023/02/27 13:40:35;;;;;;;1.48;1.23;;;;;;;;;;5071541;28;20037;-49
2023/02/27 13:43:22;;;;;;;1.73;1.27;;;;;;;;;;5071202;28;20039;-49
2023/02/27 13:45:52;;;;;;;0.98;0.95;;;;;;;;;;5070825;28;20033;-48
2023/02/27 13:48:50;;;;;;;5.65;1.95;;;;;;;;;;5071139;28;20029;-49
2023/02/27 13:51:35;;;;;;;5.63;1.17;;;;;;;;;;5017541;28;20127;-49
2023/02/27 13:54:13;;;;;;;1.13;0.93;;;;;;;;;;5071030;28;20040;-49
2023/02/27 13:56:53;;;;;;;3.60;2.47;;;;;;;;;;5071030;28;20037;-49
2023/02/27 13:59:31;;;;;;;4.72;2.70;;;;;;;;;;5070984;28;20064;-49
2023/02/27 14:01:58;;;;;;;2.10;1.65;;;;;;;;;;5071080;28;20028;-49
2023/02/27 14:04:26;;;;;;;4.05;1.98;;;;;;;;;;5071074;28;20027;-49
2023/02/27 14:07:03;;;;;;;2.92;2.15;;;;;;;;;;5069680;28;20029;-49
2023/02/27 14:09:36;;;;;;;3.05;2.58;;;;;;;;;;5071173;28;20041;-48
2023/02/27 14:12:05;;;;;;;3.67;2.35;;;;;;;;;;5071280;28;20425;-48
2023/02/27 14:14:34;;;;;;;3.15;2.53;;;;;;;;;;5070690;28;20037;-48
2023/02/27 14:17:02;;;;;;;2.67;2.20;;;;;;;;;;5070888;28;20078;-48
2023/02/27 14:19:48;;;;;;;1.70;1.60;;;;;;;;;;5070672;28;20070;-49
2023/02/27 14:22:14;;;;;;;3.55;1.92;;;;;;;;;;5070668;28;20036;-49
2023/02/27 14:24:39;;;;;;;3.85;3.00;;;;;;;;;;5070724;28;20081;-49
2023/02/27 14:27:23;;;;;;;1.88;1.30;;;;;;;;;;5070705;28;20032;-48
2023/02/27 14:29:50;;;;;;;4.78;1.60;;;;;;;;;;5073173;28;20033;-48
2023/02/27 14:32:19;;;;;;;3.42;1.60;;;;;;;;;;5074527;28;20108;-49
2023/02/27 14:34:45;;;;;;;1.90;1.75;;;;;;;;;;5074088;28;20052;-49
2023/02/27 14:37:13;;;;;;;1.60;1.42;;;;;;;;;;5074316;28;20398;-49
2023/02/27 14:39:39;;;;;;;3.25;1.80;;;;;;;;;;5074257;28;20028;-49
2023/02/27 14:42:04;;;;;;;3.33;2.17;;;;;;;;;;5072859;28;20534;-49
2023/02/27 14:44:36;;;;;;;1.55;1.25;;;;;;;;;;5074078;28;20113;-48
2023/02/27 14:47:02;;;;;;;3.72;2.08;;;;;;;;;;5074059;28;20081;-48
2023/02/27 14:49:29;;;;;;;1.98;1.52;;;;;;;;;;5056171;28;20021;-49
2023/02/27 14:51:55;;;;;;;7.25;1.75;;;;;;;;;;5074083;28;20494;-49
2023/02/27 14:54:22;;;;;;;3.53;2.20;;;;;;;;;;5074041;28;20463;-49
2023/02/27 14:57:11;;;;;;;2.78;1.75;;;;;;;;;;5073835;28;20017;-49
2023/02/27 14:59:39;;;;;;;2.33;2.00;;;;;;;;;;5073804;28;20394;-49